sensor_id;sensor_type;location;lat;lon;timestamp;P1;durP1;ratioP1;P2;durP2;ratioP2
67074;SDS011;53990;50.334;18.640;2023-04-24T00:00:30;23.50;;;16.40;;
67074;SDS011;53990;50.334;18.640;2023-04-24T00:03:18;23.30;;;16.50;;
67074;SDS011;53990;50.334;18.640;2023-04-24T00:05:48;26.00;;;16.50;;
67074;SDS011;53990;50.334;18.640;2023-04-24T00:08:15;22.80;;;16.00;;
67074;SDS011;53990;50.334;18.640;2023-04-24T00:10:43;24.30;;;15.40;;
67074;SDS011;53990;50.334;18.640;2023-04-24T00:13:10;23.70;;;15.90;;
67074;SDS011;53990;50.334;18.640;2023-04-24T00:15:37;20.40;;;15.60;;
67074;SDS011;53990;50.334;18.640;2023-04-24T00:18:04;25.30;;;16.40;;
67074;SDS011;53990;50.334;18.640;2023-04-24T00:20:32;22.50;;;17.50;;
67074;SDS011;53990;50.334;18.640;2023-04-24T00:23:00;19.90;;;14.50;;
67074;SDS011;53990;50.334;18.640;2023-04-24T00:25:27;24.20;;;15.00;;
67074;SDS011;53990;50.334;18.640;2023-04-24T00:27:54;22.50;;;14.80;;
67074;SDS011;53990;50.334;18.640;2023-04-24T00:30:22;21.90;;;15.20;;
67074;SDS011;53990;50.334;18.640;2023-04-24T00:32:49;21.90;;;14.50;;
67074;SDS011;53990;50.334;18.640;2023-04-24T00:35:16;26.30;;;16.10;;
67074;SDS011;53990;50.334;18.640;2023-04-24T00:37:44;21.50;;;14.90;;
67074;SDS011;53990;50.334;18.640;2023-04-24T00:40:11;19.10;;;14.20;;
67074;SDS011;53990;50.334;18.640;2023-04-24T00:42:40;22.60;;;14.70;;
67074;SDS011;53990;50.334;18.640;2023-04-24T00:45:07;18.70;;;14.30;;
67074;SDS011;53990;50.334;18.640;2023-04-24T00:47:35;22.90;;;14.10;;
67074;SDS011;53990;50.334;18.640;2023-04-24T00:50:04;21.20;;;14.50;;
67074;SDS011;53990;50.334;18.640;2023-04-24T00:52:32;20.10;;;14.00;;
67074;SDS011;53990;50.334;18.640;2023-04-24T00:54:59;19.90;;;13.80;;
67074;SDS011;53990;50.334;18.640;2023-04-24T00:57:27;21.10;;;13.90;;
67074;SDS011;53990;50.334;18.640;2023-04-24T00:59:54;21.80;;;14.00;;
67074;SDS011;53990;50.334;18.640;2023-04-24T01:02:22;18.80;;;14.00;;
67074;SDS011;53990;50.334;18.640;2023-04-24T01:04:52;19.20;;;13.70;;
67074;SDS011;53990;50.334;18.640;2023-04-24T01:07:20;18.90;;;13.30;;
67074;SDS011;53990;50.334;18.640;2023-04-24T01:09:48;18.20;;;13.10;;
67074;SDS011;53990;50.334;18.640;2023-04-24T01:12:18;18.20;;;12.30;;
67074;SDS011;53990;50.334;18.640;2023-04-24T01:14:46;21.00;;;12.90;;
67074;SDS011;53990;50.334;18.640;2023-04-24T01:17:13;19.60;;;12.90;;
67074;SDS011;53990;50.334;18.640;2023-04-24T01:19:40;16.30;;;12.80;;
67074;SDS011;53990;50.334;18.640;2023-04-24T01:22:12;18.90;;;12.40;;
67074;SDS011;53990;50.334;18.640;2023-04-24T01:24:41;18.20;;;11.70;;
67074;SDS011;53990;50.334;18.640;2023-04-24T01:27:09;18.60;;;12.40;;
67074;SDS011;53990;50.334;18.640;2023-04-24T01:29:37;20.00;;;12.30;;
67074;SDS011;53990;50.334;18.640;2023-04-24T01:32:05;16.90;;;12.10;;
67074;SDS011;53990;50.334;18.640;2023-04-24T01:34:33;16.40;;;12.20;;
67074;SDS011;53990;50.334;18.640;2023-04-24T01:37:01;17.80;;;11.70;;
67074;SDS011;53990;50.334;18.640;2023-04-24T01:39:28;17.40;;;11.50;;
67074;SDS011;53990;50.334;18.640;2023-04-24T01:41:56;17.10;;;11.80;;
67074;SDS011;53990;50.334;18.640;2023-04-24T01:44:24;14.80;;;11.40;;
67074;SDS011;53990;50.334;18.640;2023-04-24T01:46:51;16.30;;;11.60;;
67074;SDS011;53990;50.334;18.640;2023-04-24T01:49:21;17.30;;;12.10;;
67074;SDS011;53990;50.334;18.640;2023-04-24T01:51:48;17.80;;;12.00;;
67074;SDS011;53990;50.334;18.640;2023-04-24T01:54:16;17.20;;;12.00;;
67074;SDS011;53990;50.334;18.640;2023-04-24T01:56:43;17.20;;;11.50;;
67074;SDS011;53990;50.334;18.640;2023-04-24T01:59:11;17.20;;;12.00;;
67074;SDS011;53990;50.334;18.640;2023-04-24T02:01:39;16.10;;;11.80;;
67074;SDS011;53990;50.334;18.640;2023-04-24T02:04:07;16.10;;;11.30;;
67074;SDS011;53990;50.334;18.640;2023-04-24T02:06:34;17.40;;;12.30;;
67074;SDS011;53990;50.334;18.640;2023-04-24T02:09:02;17.00;;;11.70;;
67074;SDS011;53990;50.334;18.640;2023-04-24T02:11:30;16.50;;;11.60;;
67074;SDS011;53990;50.334;18.640;2023-04-24T02:13:57;16.40;;;12.60;;
67074;SDS011;53990;50.334;18.640;2023-04-24T02:16:25;17.80;;;12.20;;
67074;SDS011;53990;50.334;18.640;2023-04-24T02:18:52;18.30;;;12.50;;
67074;SDS011;53990;50.334;18.640;2023-04-24T02:21:19;17.00;;;12.20;;
67074;SDS011;53990;50.334;18.640;2023-04-24T02:23:46;20.60;;;12.80;;
67074;SDS011;53990;50.334;18.640;2023-04-24T02:26:14;16.90;;;11.80;;
67074;SDS011;53990;50.334;18.640;2023-04-24T02:28:42;19.20;;;12.90;;
67074;SDS011;53990;50.334;18.640;2023-04-24T02:31:09;18.60;;;12.70;;
67074;SDS011;53990;50.334;18.640;2023-04-24T02:33:37;18.70;;;13.60;;
67074;SDS011;53990;50.334;18.640;2023-04-24T02:36:04;17.10;;;12.60;;
67074;SDS011;53990;50.334;18.640;2023-04-24T02:38:31;18.30;;;13.60;;
67074;SDS011;53990;50.334;18.640;2023-04-24T02:40:58;19.00;;;13.60;;
67074;SDS011;53990;50.334;18.640;2023-04-24T02:43:28;21.10;;;12.70;;
67074;SDS011;53990;50.334;18.640;2023-04-24T02:45:55;20.40;;;13.40;;
67074;SDS011;53990;50.334;18.640;2023-04-24T02:48:22;18.40;;;13.00;;
67074;SDS011;53990;50.334;18.640;2023-04-24T02:50:50;18.70;;;12.40;;
67074;SDS011;53990;50.334;18.640;2023-04-24T02:53:18;21.40;;;13.10;;
67074;SDS011;53990;50.334;18.640;2023-04-24T02:55:45;19.60;;;12.80;;
67074;SDS011;53990;50.334;18.640;2023-04-24T02:58:13;19.00;;;12.80;;
67074;SDS011;53990;50.334;18.640;2023-04-24T03:00:40;17.20;;;12.90;;
67074;SDS011;53990;50.334;18.640;2023-04-24T03:03:07;17.40;;;12.70;;
67074;SDS011;53990;50.334;18.640;2023-04-24T03:05:35;15.80;;;11.40;;
67074;SDS011;53990;50.334;18.640;2023-04-24T03:08:02;20.20;;;12.00;;
67074;SDS011;53990;50.334;18.640;2023-04-24T03:10:29;18.20;;;12.00;;
67074;SDS011;53990;50.334;18.640;2023-04-24T03:12:56;17.70;;;11.50;;
67074;SDS011;53990;50.334;18.640;2023-04-24T03:15:24;18.20;;;11.60;;
67074;SDS011;53990;50.334;18.640;2023-04-24T03:17:51;15.70;;;11.50;;
67074;SDS011;53990;50.334;18.640;2023-04-24T03:20:19;16.40;;;11.00;;
67074;SDS011;53990;50.334;18.640;2023-04-24T03:26:20;16.70;;;11.20;;
67074;SDS011;53990;50.334;18.640;2023-04-24T03:28:48;18.50;;;12.20;;
67074;SDS011;53990;50.334;18.640;2023-04-24T03:31:15;17.70;;;11.30;;
67074;SDS011;53990;50.334;18.640;2023-04-24T03:33:43;16.40;;;11.50;;
67074;SDS011;53990;50.334;18.640;2023-04-24T03:36:10;15.70;;;11.50;;
67074;SDS011;53990;50.334;18.640;2023-04-24T03:38:38;17.50;;;11.80;;
67074;SDS011;53990;50.334;18.640;2023-04-24T03:41:05;15.80;;;11.00;;
67074;SDS011;53990;50.334;18.640;2023-04-24T03:43:32;15.80;;;11.30;;
67074;SDS011;53990;50.334;18.640;2023-04-24T03:46:01;16.20;;;11.40;;
67074;SDS011;53990;50.334;18.640;2023-04-24T03:48:29;16.60;;;11.10;;
67074;SDS011;53990;50.334;18.640;2023-04-24T03:50:56;14.70;;;10.80;;
67074;SDS011;53990;50.334;18.640;2023-04-24T03:53:23;17.40;;;11.70;;
67074;SDS011;53990;50.334;18.640;2023-04-24T03:55:51;15.30;;;11.10;;
67074;SDS011;53990;50.334;18.640;2023-04-24T03:58:19;17.20;;;10.80;;
67074;SDS011;53990;50.334;18.640;2023-04-24T04:00:47;17.40;;;11.20;;
67074;SDS011;53990;50.334;18.640;2023-04-24T04:03:17;17.40;;;11.30;;
67074;SDS011;53990;50.334;18.640;2023-04-24T04:05:47;17.70;;;10.80;;
67074;SDS011;53990;50.334;18.640;2023-04-24T04:08:30;15.90;;;11.40;;
67074;SDS011;53990;50.334;18.640;2023-04-24T04:11:06;16.80;;;10.90;;
67074;SDS011;53990;50.334;18.640;2023-04-24T04:13:33;14.30;;;10.50;;
67074;SDS011;53990;50.334;18.640;2023-04-24T04:16:00;14.90;;;10.80;;
67074;SDS011;53990;50.334;18.640;2023-04-24T04:18:28;14.30;;;10.30;;
67074;SDS011;53990;50.334;18.640;2023-04-24T04:20:55;15.20;;;10.40;;
67074;SDS011;53990;50.334;18.640;2023-04-24T04:23:23;15.60;;;10.30;;
67074;SDS011;53990;50.334;18.640;2023-04-24T04:25:51;16.20;;;10.20;;
67074;SDS011;53990;50.334;18.640;2023-04-24T04:28:22;17.00;;;10.50;;
67074;SDS011;53990;50.334;18.640;2023-04-24T04:30:51;17.40;;;10.20;;
67074;SDS011;53990;50.334;18.640;2023-04-24T04:33:22;18.20;;;11.00;;
67074;SDS011;53990;50.334;18.640;2023-04-24T04:35:50;13.50;;;9.60;;
67074;SDS011;53990;50.334;18.640;2023-04-24T04:38:23;14.60;;;10.30;;
67074;SDS011;53990;50.334;18.640;2023-04-24T04:40:51;20.90;;;10.90;;
67074;SDS011;53990;50.334;18.640;2023-04-24T04:43:18;15.70;;;10.50;;
67074;SDS011;53990;50.334;18.640;2023-04-24T04:45:45;14.60;;;10.00;;
67074;SDS011;53990;50.334;18.640;2023-04-24T04:48:13;15.50;;;9.70;;
67074;SDS011;53990;50.334;18.640;2023-04-24T04:50:40;15.60;;;9.90;;
67074;SDS011;53990;50.334;18.640;2023-04-24T04:53:08;13.40;;;9.20;;
67074;SDS011;53990;50.334;18.640;2023-04-24T04:55:47;13.00;;;9.10;;
67074;SDS011;53990;50.334;18.640;2023-04-24T04:58:14;14.30;;;9.60;;
67074;SDS011;53990;50.334;18.640;2023-04-24T05:00:41;16.50;;;9.50;;
67074;SDS011;53990;50.334;18.640;2023-04-24T05:03:09;15.20;;;9.40;;
67074;SDS011;53990;50.334;18.640;2023-04-24T05:05:36;14.50;;;9.40;;
67074;SDS011;53990;50.334;18.640;2023-04-24T05:08:07;14.00;;;8.80;;
67074;SDS011;53990;50.334;18.640;2023-04-24T05:10:35;15.00;;;8.40;;
67074;SDS011;53990;50.334;18.640;2023-04-24T05:13:04;13.00;;;9.20;;
67074;SDS011;53990;50.334;18.640;2023-04-24T05:15:31;13.80;;;8.60;;
67074;SDS011;53990;50.334;18.640;2023-04-24T05:17:59;16.20;;;9.30;;
67074;SDS011;53990;50.334;18.640;2023-04-24T05:20:27;12.60;;;9.60;;
67074;SDS011;53990;50.334;18.640;2023-04-24T05:22:54;12.10;;;8.90;;
67074;SDS011;53990;50.334;18.640;2023-04-24T05:25:21;13.80;;;9.00;;
67074;SDS011;53990;50.334;18.640;2023-04-24T05:27:48;13.60;;;8.40;;
67074;SDS011;53990;50.334;18.640;2023-04-24T05:30:16;12.00;;;8.60;;
67074;SDS011;53990;50.334;18.640;2023-04-24T05:32:43;12.00;;;8.70;;
67074;SDS011;53990;50.334;18.640;2023-04-24T05:35:10;13.30;;;8.60;;
67074;SDS011;53990;50.334;18.640;2023-04-24T05:37:38;13.20;;;8.80;;
67074;SDS011;53990;50.334;18.640;2023-04-24T05:40:05;11.50;;;8.20;;
67074;SDS011;53990;50.334;18.640;2023-04-24T05:42:33;12.20;;;8.50;;
67074;SDS011;53990;50.334;18.640;2023-04-24T05:45:00;11.40;;;8.20;;
67074;SDS011;53990;50.334;18.640;2023-04-24T05:47:27;13.00;;;9.00;;
67074;SDS011;53990;50.334;18.640;2023-04-24T05:49:55;12.50;;;8.50;;
67074;SDS011;53990;50.334;18.640;2023-04-24T05:52:22;12.50;;;8.60;;
67074;SDS011;53990;50.334;18.640;2023-04-24T05:54:50;14.50;;;7.90;;
67074;SDS011;53990;50.334;18.640;2023-04-24T05:57:17;12.70;;;8.00;;
67074;SDS011;53990;50.334;18.640;2023-04-24T05:59:45;10.30;;;8.10;;
67074;SDS011;53990;50.334;18.640;2023-04-24T06:02:12;14.60;;;8.60;;
67074;SDS011;53990;50.334;18.640;2023-04-24T06:04:39;13.20;;;8.30;;
67074;SDS011;53990;50.334;18.640;2023-04-24T06:07:07;12.10;;;8.40;;
67074;SDS011;53990;50.334;18.640;2023-04-24T06:09:34;12.40;;;8.30;;
67074;SDS011;53990;50.334;18.640;2023-04-24T06:12:01;13.10;;;8.20;;
67074;SDS011;53990;50.334;18.640;2023-04-24T06:14:29;12.50;;;7.90;;
67074;SDS011;53990;50.334;18.640;2023-04-24T06:16:56;15.90;;;8.20;;
67074;SDS011;53990;50.334;18.640;2023-04-24T06:19:24;14.10;;;8.10;;
67074;SDS011;53990;50.334;18.640;2023-04-24T06:21:52;16.10;;;8.20;;
67074;SDS011;53990;50.334;18.640;2023-04-24T06:24:19;11.50;;;7.70;;
67074;SDS011;53990;50.334;18.640;2023-04-24T06:26:47;12.60;;;8.00;;
67074;SDS011;53990;50.334;18.640;2023-04-24T06:29:14;13.00;;;9.10;;
67074;SDS011;53990;50.334;18.640;2023-04-24T06:31:41;12.60;;;8.00;;
67074;SDS011;53990;50.334;18.640;2023-04-24T06:34:08;12.50;;;7.70;;
67074;SDS011;53990;50.334;18.640;2023-04-24T06:36:36;11.70;;;8.00;;
67074;SDS011;53990;50.334;18.640;2023-04-24T06:39:03;10.90;;;7.00;;
67074;SDS011;53990;50.334;18.640;2023-04-24T06:41:31;12.20;;;7.40;;
67074;SDS011;53990;50.334;18.640;2023-04-24T06:44:01;8.70;;;7.30;;
67074;SDS011;53990;50.334;18.640;2023-04-24T06:46:28;12.10;;;7.10;;
67074;SDS011;53990;50.334;18.640;2023-04-24T06:48:55;11.70;;;8.00;;
67074;SDS011;53990;50.334;18.640;2023-04-24T06:51:23;13.10;;;7.70;;
67074;SDS011;53990;50.334;18.640;2023-04-24T06:53:54;11.10;;;8.60;;
67074;SDS011;53990;50.334;18.640;2023-04-24T06:56:23;13.40;;;8.90;;
67074;SDS011;53990;50.334;18.640;2023-04-24T06:58:50;15.90;;;8.30;;
67074;SDS011;53990;50.334;18.640;2023-04-24T07:01:18;11.10;;;7.90;;
67074;SDS011;53990;50.334;18.640;2023-04-24T07:03:45;9.50;;;7.60;;
67074;SDS011;53990;50.334;18.640;2023-04-24T07:06:12;10.50;;;7.60;;
67074;SDS011;53990;50.334;18.640;2023-04-24T07:08:40;12.80;;;7.40;;
67074;SDS011;53990;50.334;18.640;2023-04-24T07:11:08;13.80;;;7.10;;
67074;SDS011;53990;50.334;18.640;2023-04-24T07:13:36;10.40;;;7.20;;
67074;SDS011;53990;50.334;18.640;2023-04-24T07:16:03;10.00;;;6.80;;
67074;SDS011;53990;50.334;18.640;2023-04-24T07:18:30;10.80;;;5.70;;
67074;SDS011;53990;50.334;18.640;2023-04-24T07:20:58;8.60;;;6.00;;
67074;SDS011;53990;50.334;18.640;2023-04-24T07:23:25;7.60;;;5.40;;
67074;SDS011;53990;50.334;18.640;2023-04-24T07:25:52;6.90;;;5.30;;
67074;SDS011;53990;50.334;18.640;2023-04-24T07:28:20;8.80;;;5.30;;
67074;SDS011;53990;50.334;18.640;2023-04-24T07:30:48;8.60;;;5.80;;
67074;SDS011;53990;50.334;18.640;2023-04-24T07:33:15;7.20;;;5.00;;
67074;SDS011;53990;50.334;18.640;2023-04-24T07:35:42;10.80;;;7.60;;
67074;SDS011;53990;50.334;18.640;2023-04-24T07:38:09;9.40;;;5.60;;
67074;SDS011;53990;50.334;18.640;2023-04-24T07:40:37;9.40;;;5.00;;
67074;SDS011;53990;50.334;18.640;2023-04-24T07:43:04;7.00;;;5.30;;
67074;SDS011;53990;50.334;18.640;2023-04-24T07:45:32;8.00;;;5.20;;
67074;SDS011;53990;50.334;18.640;2023-04-24T07:48:03;8.30;;;5.40;;
67074;SDS011;53990;50.334;18.640;2023-04-24T07:50:30;7.40;;;5.40;;
67074;SDS011;53990;50.334;18.640;2023-04-24T07:53:00;8.50;;;5.60;;
67074;SDS011;53990;50.334;18.640;2023-04-24T07:55:27;9.80;;;6.20;;
67074;SDS011;53990;50.334;18.640;2023-04-24T07:57:55;9.20;;;5.70;;
67074;SDS011;53990;50.334;18.640;2023-04-24T08:00:22;9.40;;;5.80;;
67074;SDS011;53990;50.334;18.640;2023-04-24T08:02:49;9.40;;;6.30;;
67074;SDS011;53990;50.334;18.640;2023-04-24T08:05:17;9.00;;;5.70;;
67074;SDS011;53990;50.334;18.640;2023-04-24T08:07:45;11.20;;;5.60;;
67074;SDS011;53990;50.334;18.640;2023-04-24T08:10:15;8.20;;;5.40;;
67074;SDS011;53990;50.334;18.640;2023-04-24T08:12:42;8.40;;;5.10;;
67074;SDS011;53990;50.334;18.640;2023-04-24T08:15:10;10.20;;;5.60;;
67074;SDS011;53990;50.334;18.640;2023-04-24T08:17:38;9.30;;;5.90;;
67074;SDS011;53990;50.334;18.640;2023-04-24T08:20:05;7.80;;;5.60;;
67074;SDS011;53990;50.334;18.640;2023-04-24T08:22:37;13.10;;;6.50;;
67074;SDS011;53990;50.334;18.640;2023-04-24T08:25:04;10.20;;;6.10;;
67074;SDS011;53990;50.334;18.640;2023-04-24T08:27:32;9.80;;;6.20;;
67074;SDS011;53990;50.334;18.640;2023-04-24T08:29:59;8.60;;;6.40;;
67074;SDS011;53990;50.334;18.640;2023-04-24T08:32:29;9.20;;;6.30;;
67074;SDS011;53990;50.334;18.640;2023-04-24T08:34:57;7.60;;;5.90;;
67074;SDS011;53990;50.334;18.640;2023-04-24T08:37:26;10.80;;;6.20;;
67074;SDS011;53990;50.334;18.640;2023-04-24T08:39:53;8.70;;;6.00;;
67074;SDS011;53990;50.334;18.640;2023-04-24T08:42:21;11.20;;;5.80;;
67074;SDS011;53990;50.334;18.640;2023-04-24T08:44:49;9.40;;;6.30;;
67074;SDS011;53990;50.334;18.640;2023-04-24T08:47:17;11.30;;;6.70;;
67074;SDS011;53990;50.334;18.640;2023-04-24T08:49:47;11.20;;;6.50;;
67074;SDS011;53990;50.334;18.640;2023-04-24T08:52:15;9.70;;;6.90;;
67074;SDS011;53990;50.334;18.640;2023-04-24T08:54:42;12.30;;;6.70;;
67074;SDS011;53990;50.334;18.640;2023-04-24T08:57:14;9.60;;;6.30;;
67074;SDS011;53990;50.334;18.640;2023-04-24T08:59:44;10.10;;;6.20;;
67074;SDS011;53990;50.334;18.640;2023-04-24T09:02:13;8.20;;;5.80;;
67074;SDS011;53990;50.334;18.640;2023-04-24T09:04:42;11.20;;;6.70;;
67074;SDS011;53990;50.334;18.640;2023-04-24T09:07:10;10.10;;;6.30;;
67074;SDS011;53990;50.334;18.640;2023-04-24T09:09:39;9.20;;;6.20;;
67074;SDS011;53990;50.334;18.640;2023-04-24T09:12:08;7.90;;;6.20;;
67074;SDS011;53990;50.334;18.640;2023-04-24T09:14:37;8.70;;;5.80;;
67074;SDS011;53990;50.334;18.640;2023-04-24T09:17:09;7.70;;;6.10;;
67074;SDS011;53990;50.334;18.640;2023-04-24T09:19:37;9.50;;;5.90;;
67074;SDS011;53990;50.334;18.640;2023-04-24T09:22:10;7.60;;;5.50;;
67074;SDS011;53990;50.334;18.640;2023-04-24T09:24:38;9.30;;;6.20;;
67074;SDS011;53990;50.334;18.640;2023-04-24T09:27:06;7.70;;;6.60;;
67074;SDS011;53990;50.334;18.640;2023-04-24T09:29:33;9.40;;;5.90;;
67074;SDS011;53990;50.334;18.640;2023-04-24T09:32:17;9.80;;;5.90;;
67074;SDS011;53990;50.334;18.640;2023-04-24T09:34:50;9.50;;;6.00;;
67074;SDS011;53990;50.334;18.640;2023-04-24T09:37:35;8.80;;;5.70;;
67074;SDS011;53990;50.334;18.640;2023-04-24T09:42:52;9.50;;;6.00;;
67074;SDS011;53990;50.334;18.640;2023-04-24T09:45:20;6.80;;;4.90;;
67074;SDS011;53990;50.334;18.640;2023-04-24T09:47:52;7.40;;;5.40;;
67074;SDS011;53990;50.334;18.640;2023-04-24T09:50:21;8.30;;;5.80;;
67074;SDS011;53990;50.334;18.640;2023-04-24T09:53:05;7.20;;;5.40;;
67074;SDS011;53990;50.334;18.640;2023-04-24T09:55:39;9.10;;;5.80;;
67074;SDS011;53990;50.334;18.640;2023-04-24T09:58:07;8.90;;;5.50;;
67074;SDS011;53990;50.334;18.640;2023-04-24T10:00:35;7.90;;;6.10;;
67074;SDS011;53990;50.334;18.640;2023-04-24T10:03:05;9.10;;;6.40;;
67074;SDS011;53990;50.334;18.640;2023-04-24T10:05:35;10.00;;;7.00;;
67074;SDS011;53990;50.334;18.640;2023-04-24T10:08:05;9.90;;;7.20;;
67074;SDS011;53990;50.334;18.640;2023-04-24T10:10:45;10.20;;;7.10;;
67074;SDS011;53990;50.334;18.640;2023-04-24T10:13:14;9.40;;;6.80;;
67074;SDS011;53990;50.334;18.640;2023-04-24T10:15:42;9.60;;;6.30;;
67074;SDS011;53990;50.334;18.640;2023-04-24T10:18:12;11.70;;;6.40;;
67074;SDS011;53990;50.334;18.640;2023-04-24T10:20:40;7.80;;;6.00;;
67074;SDS011;53990;50.334;18.640;2023-04-24T10:23:08;10.40;;;6.40;;
67074;SDS011;53990;50.334;18.640;2023-04-24T10:25:37;9.50;;;6.60;;
67074;SDS011;53990;50.334;18.640;2023-04-24T10:28:05;10.70;;;6.90;;
67074;SDS011;53990;50.334;18.640;2023-04-24T10:30:33;11.20;;;6.20;;
67074;SDS011;53990;50.334;18.640;2023-04-24T10:33:06;10.50;;;6.70;;
67074;SDS011;53990;50.334;18.640;2023-04-24T10:35:39;11.10;;;8.50;;
67074;SDS011;53990;50.334;18.640;2023-04-24T10:38:16;10.00;;;6.90;;
67074;SDS011;53990;50.334;18.640;2023-04-24T10:44:18;10.40;;;7.10;;
67074;SDS011;53990;50.334;18.640;2023-04-24T10:46:46;9.10;;;6.70;;
67074;SDS011;53990;50.334;18.640;2023-04-24T10:49:28;10.00;;;7.10;;
67074;SDS011;53990;50.334;18.640;2023-04-24T10:52:00;10.70;;;7.70;;
67074;SDS011;53990;50.334;18.640;2023-04-24T10:54:36;10.10;;;6.90;;
67074;SDS011;53990;50.334;18.640;2023-04-24T11:00:20;10.50;;;7.70;;
67074;SDS011;53990;50.334;18.640;2023-04-24T11:02:48;10.20;;;7.70;;
67074;SDS011;53990;50.334;18.640;2023-04-24T11:05:17;10.70;;;7.60;;
67074;SDS011;53990;50.334;18.640;2023-04-24T11:11:01;10.90;;;7.50;;
67074;SDS011;53990;50.334;18.640;2023-04-24T11:16:31;10.50;;;7.00;;
67074;SDS011;53990;50.334;18.640;2023-04-24T11:21:55;9.10;;;6.90;;
67074;SDS011;53990;50.334;18.640;2023-04-24T11:27:16;12.70;;;9.00;;
67074;SDS011;53990;50.334;18.640;2023-04-24T11:32:16;10.00;;;6.80;;
67074;SDS011;53990;50.334;18.640;2023-04-24T11:34:49;12.10;;;7.50;;
67074;SDS011;53990;50.334;18.640;2023-04-24T11:37:17;10.60;;;7.70;;
67074;SDS011;53990;50.334;18.640;2023-04-24T11:39:44;13.80;;;11.60;;
67074;SDS011;53990;50.334;18.640;2023-04-24T11:42:21;11.10;;;6.70;;
67074;SDS011;53990;50.334;18.640;2023-04-24T11:48:45;7.70;;;5.90;;
67074;SDS011;53990;50.334;18.640;2023-04-24T11:51:18;9.90;;;6.40;;
67074;SDS011;53990;50.334;18.640;2023-04-24T11:57:30;8.80;;;6.20;;
67074;SDS011;53990;50.334;18.640;2023-04-24T12:00:03;9.50;;;6.00;;
67074;SDS011;53990;50.334;18.640;2023-04-24T12:02:32;8.90;;;6.10;;
67074;SDS011;53990;50.334;18.640;2023-04-24T12:04:59;10.80;;;6.00;;
67074;SDS011;53990;50.334;18.640;2023-04-24T12:07:26;12.40;;;6.30;;
67074;SDS011;53990;50.334;18.640;2023-04-24T12:09:58;9.20;;;6.00;;
67074;SDS011;53990;50.334;18.640;2023-04-24T12:12:27;7.40;;;5.50;;
67074;SDS011;53990;50.334;18.640;2023-04-24T12:14:56;14.90;;;6.70;;
67074;SDS011;53990;50.334;18.640;2023-04-24T12:17:31;9.70;;;6.00;;
67074;SDS011;53990;50.334;18.640;2023-04-24T12:20:03;10.50;;;6.30;;
67074;SDS011;53990;50.334;18.640;2023-04-24T12:22:55;10.60;;;7.00;;
67074;SDS011;53990;50.334;18.640;2023-04-24T12:25:25;11.10;;;6.70;;
67074;SDS011;53990;50.334;18.640;2023-04-24T12:27:54;14.30;;;7.00;;
67074;SDS011;53990;50.334;18.640;2023-04-24T12:30:27;10.20;;;6.60;;
67074;SDS011;53990;50.334;18.640;2023-04-24T12:32:58;13.20;;;6.50;;
67074;SDS011;53990;50.334;18.640;2023-04-24T12:35:30;9.50;;;6.40;;
67074;SDS011;53990;50.334;18.640;2023-04-24T12:38:25;13.90;;;6.50;;
67074;SDS011;53990;50.334;18.640;2023-04-24T12:43:34;11.20;;;6.70;;
67074;SDS011;53990;50.334;18.640;2023-04-24T12:46:04;10.00;;;6.20;;
67074;SDS011;53990;50.334;18.640;2023-04-24T12:48:32;9.10;;;6.40;;
67074;SDS011;53990;50.334;18.640;2023-04-24T12:50:59;9.10;;;6.10;;
67074;SDS011;53990;50.334;18.640;2023-04-24T12:53:29;18.40;;;9.80;;
67074;SDS011;53990;50.334;18.640;2023-04-24T12:55:58;7.50;;;6.00;;
67074;SDS011;53990;50.334;18.640;2023-04-24T12:58:25;8.20;;;6.10;;
67074;SDS011;53990;50.334;18.640;2023-04-24T13:00:52;9.30;;;6.10;;
67074;SDS011;53990;50.334;18.640;2023-04-24T13:03:20;8.20;;;5.40;;
67074;SDS011;53990;50.334;18.640;2023-04-24T13:05:47;10.10;;;6.00;;
67074;SDS011;53990;50.334;18.640;2023-04-24T13:08:15;7.10;;;5.30;;
67074;SDS011;53990;50.334;18.640;2023-04-24T13:10:42;10.60;;;5.50;;
67074;SDS011;53990;50.334;18.640;2023-04-24T13:13:10;7.60;;;5.40;;
67074;SDS011;53990;50.334;18.640;2023-04-24T13:15:37;9.20;;;5.70;;
67074;SDS011;53990;50.334;18.640;2023-04-24T13:18:04;9.30;;;5.30;;
67074;SDS011;53990;50.334;18.640;2023-04-24T13:20:32;7.60;;;6.10;;
67074;SDS011;53990;50.334;18.640;2023-04-24T13:22:59;10.80;;;6.30;;
67074;SDS011;53990;50.334;18.640;2023-04-24T13:25:26;8.00;;;6.50;;
67074;SDS011;53990;50.334;18.640;2023-04-24T13:27:55;8.00;;;5.60;;
67074;SDS011;53990;50.334;18.640;2023-04-24T13:30:22;7.40;;;5.90;;
67074;SDS011;53990;50.334;18.640;2023-04-24T13:32:49;13.60;;;8.50;;
67074;SDS011;53990;50.334;18.640;2023-04-24T13:35:17;6.60;;;4.60;;
67074;SDS011;53990;50.334;18.640;2023-04-24T13:37:44;8.80;;;5.30;;
67074;SDS011;53990;50.334;18.640;2023-04-24T13:40:11;9.10;;;5.80;;
67074;SDS011;53990;50.334;18.640;2023-04-24T13:42:39;7.90;;;4.90;;
67074;SDS011;53990;50.334;18.640;2023-04-24T13:45:07;11.20;;;6.50;;
67074;SDS011;53990;50.334;18.640;2023-04-24T13:47:35;12.40;;;5.40;;
67074;SDS011;53990;50.334;18.640;2023-04-24T13:50:03;9.50;;;6.00;;
67074;SDS011;53990;50.334;18.640;2023-04-24T13:52:31;6.80;;;6.00;;
67074;SDS011;53990;50.334;18.640;2023-04-24T13:54:58;10.30;;;7.30;;
67074;SDS011;53990;50.334;18.640;2023-04-24T13:57:28;7.40;;;6.30;;
67074;SDS011;53990;50.334;18.640;2023-04-24T13:59:58;8.90;;;6.20;;
67074;SDS011;53990;50.334;18.640;2023-04-24T14:02:28;8.00;;;6.10;;
67074;SDS011;53990;50.334;18.640;2023-04-24T14:04:55;7.70;;;6.40;;
67074;SDS011;53990;50.334;18.640;2023-04-24T14:07:23;7.50;;;6.00;;
67074;SDS011;53990;50.334;18.640;2023-04-24T14:09:50;9.80;;;6.90;;
67074;SDS011;53990;50.334;18.640;2023-04-24T14:12:17;9.80;;;6.50;;
67074;SDS011;53990;50.334;18.640;2023-04-24T14:14:46;8.20;;;6.00;;
67074;SDS011;53990;50.334;18.640;2023-04-24T14:17:15;7.60;;;5.80;;
67074;SDS011;53990;50.334;18.640;2023-04-24T14:19:42;7.80;;;6.10;;
67074;SDS011;53990;50.334;18.640;2023-04-24T14:22:10;9.10;;;7.50;;
67074;SDS011;53990;50.334;18.640;2023-04-24T14:24:37;8.00;;;6.40;;
67074;SDS011;53990;50.334;18.640;2023-04-24T14:27:04;9.10;;;6.60;;
67074;SDS011;53990;50.334;18.640;2023-04-24T14:29:32;8.10;;;6.20;;
67074;SDS011;53990;50.334;18.640;2023-04-24T14:31:59;8.30;;;6.30;;
67074;SDS011;53990;50.334;18.640;2023-04-24T14:34:26;9.40;;;6.40;;
67074;SDS011;53990;50.334;18.640;2023-04-24T14:36:54;8.40;;;6.50;;
67074;SDS011;53990;50.334;18.640;2023-04-24T14:39:21;10.00;;;6.90;;
67074;SDS011;53990;50.334;18.640;2023-04-24T14:41:49;7.40;;;5.60;;
67074;SDS011;53990;50.334;18.640;2023-04-24T14:44:16;8.40;;;6.00;;
67074;SDS011;53990;50.334;18.640;2023-04-24T14:47:12;9.20;;;4.90;;
67074;SDS011;53990;50.334;18.640;2023-04-24T14:49:43;6.60;;;5.40;;
67074;SDS011;53990;50.334;18.640;2023-04-24T14:52:10;7.00;;;5.50;;
67074;SDS011;53990;50.334;18.640;2023-04-24T14:55:06;9.60;;;5.60;;
67074;SDS011;53990;50.334;18.640;2023-04-24T14:57:36;6.80;;;5.30;;
67074;SDS011;53990;50.334;18.640;2023-04-24T15:00:05;8.40;;;5.70;;
67074;SDS011;53990;50.334;18.640;2023-04-24T15:02:35;11.10;;;7.90;;
67074;SDS011;53990;50.334;18.640;2023-04-24T15:05:05;6.60;;;5.90;;
67074;SDS011;53990;50.334;18.640;2023-04-24T15:07:33;7.40;;;6.20;;